createdAt,value
2019-04-19T00:00:30.795Z,16.00
2019-04-19T00:03:00.264Z,16.10
2019-04-19T00:05:36.720Z,16.00
2019-04-19T00:08:23.633Z,15.90
2019-04-19T00:10:43.449Z,15.90
2019-04-19T00:13:06.196Z,15.90
2019-04-19T00:15:35.744Z,15.80
2019-04-19T00:18:09.285Z,15.80
2019-04-19T00:20:55.732Z,15.80
2019-04-19T00:23:15.496Z,15.80
2019-04-19T00:25:36.559Z,15.70
2019-04-19T00:28:05.529Z,15.70
2019-04-19T00:30:45.270Z,15.60
2019-04-19T00:33:14.577Z,15.50
2019-04-19T00:35:54.323Z,15.50
2019-04-19T00:38:38.318Z,15.40
2019-04-19T00:41:14.177Z,15.40
2019-04-19T00:43:56.255Z,15.30
2019-04-19T00:46:55.549Z,15.30
2019-04-19T00:49:14.560Z,15.30
2019-04-19T00:51:49.009Z,15.30
2019-04-19T00:54:13.044Z,15.20
2019-04-19T00:56:42.694Z,15.20
2019-04-19T00:59:05.748Z,15.20
2019-04-19T01:01:32.851Z,15.30
2019-04-19T01:04:05.122Z,15.30
2019-04-19T01:06:41.289Z,15.30
2019-04-19T01:09:19.079Z,15.30
2019-04-19T01:11:49.068Z,15.30
2019-04-19T01:14:18.329Z,15.30
2019-04-19T01:16:51.659Z,15.30
2019-04-19T01:19:09.316Z,15.20
2019-04-19T01:21:36.362Z,15.20
2019-04-19T01:24:06.525Z,15.20
2019-04-19T01:26:40.526Z,15.20
2019-04-19T01:29:09.489Z,15.20
2019-04-19T01:31:35.888Z,15.20
2019-04-19T01:34:14.697Z,15.20
2019-04-19T01:36:39.071Z,15.10
2019-04-19T01:39:23.192Z,15.10
2019-04-19T01:41:51.455Z,15.10
2019-04-19T01:44:31.698Z,15.00
2019-04-19T01:47:00.957Z,15.00
2019-04-19T01:49:53.126Z,15.00
2019-04-19T01:52:41.910Z,15.00
2019-04-19T01:54:55.860Z,15.00
2019-04-19T01:57:17.368Z,15.00
2019-04-19T01:59:50.619Z,15.00
2019-04-19T02:02:18.932Z,14.90
2019-04-19T02:04:45.659Z,15.00
2019-04-19T02:07:19.750Z,15.00
2019-04-19T02:09:59.144Z,15.00
2019-04-19T02:12:26.166Z,14.90
2019-04-19T02:14:53.826Z,14.90
2019-04-19T02:17:17.352Z,14.90
2019-04-19T02:19:52.919Z,14.90
2019-04-19T02:22:22.775Z,14.80
2019-04-19T02:24:49.244Z,14.80
2019-04-19T02:27:40.474Z,14.80
2019-04-19T02:30:15.922Z,14.80
2019-04-19T02:32:58.396Z,14.80
2019-04-19T02:35:34.693Z,14.80
2019-04-19T02:40:58.128Z,14.60
2019-04-19T02:45:29.821Z,14.50
2019-04-19T02:48:33.751Z,14.50
2019-04-19T02:53:47.099Z,14.40
2019-04-19T02:56:46.734Z,14.30
2019-04-19T02:59:32.098Z,14.30
2019-04-19T03:02:11.129Z,14.20
2019-04-19T03:04:39.100Z,14.20
2019-04-19T03:06:40.278Z,14.20
2019-04-19T03:09:03.025Z,14.20
2019-04-19T03:11:47.493Z,14.10
2019-04-19T03:14:14.483Z,14.10
2019-04-19T03:16:51.090Z,14.20
2019-04-19T03:19:14.823Z,14.20
2019-04-19T03:22:10.021Z,14.20
2019-04-19T03:24:42.372Z,14.20
2019-04-19T03:27:02.328Z,14.20
2019-04-19T03:29:45.282Z,14.20
2019-04-19T03:32:54.169Z,14.20
2019-04-19T03:37:33.825Z,14.10
2019-04-19T03:40:12.846Z,14.10
2019-04-19T03:42:34.913Z,14.10
2019-04-19T03:45:06.858Z,14.10
2019-04-19T03:47:37.854Z,14.10
2019-04-19T03:50:04.488Z,14.10
2019-04-19T03:52:32.037Z,14.10
2019-04-19T03:55:24.447Z,14.10
2019-04-19T03:57:45.781Z,14.10
2019-04-19T04:00:07.003Z,14.00
2019-04-19T04:02:41.139Z,14.00
2019-04-19T04:05:09.744Z,14.00
2019-04-19T04:07:37.128Z,14.00
2019-04-19T04:10:12.893Z,14.00
2019-04-19T04:12:53.500Z,14.00
2019-04-19T04:15:48.269Z,14.00
2019-04-19T04:18:02.941Z,14.00
2019-04-19T04:20:35.306Z,14.00
2019-04-19T04:23:07.177Z,14.00
2019-04-19T04:25:44.145Z,14.00
2019-04-19T04:28:14.380Z,14.00
2019-04-19T04:30:42.076Z,14.00
2019-04-19T04:33:10.395Z,13.90
2019-04-19T04:35:48.357Z,14.00
2019-04-19T04:38:29.117Z,13.90
2019-04-19T04:40:52.897Z,13.90
2019-04-19T04:43:34.465Z,13.90
2019-04-19T04:46:21.062Z,13.90
2019-04-19T04:48:43.508Z,13.90
2019-04-19T04:51:21.052Z,13.90
2019-04-19T04:53:51.153Z,13.80
2019-04-19T04:56:33.542Z,13.90
2019-04-19T04:59:04.277Z,13.80
2019-04-19T05:01:40.614Z,13.80
2019-04-19T05:04:12.790Z,13.80
2019-04-19T05:06:52.073Z,13.80
2019-04-19T05:09:21.002Z,13.80
2019-04-19T05:11:47.386Z,13.90
2019-04-19T05:14:19.417Z,13.80
2019-04-19T05:16:53.571Z,13.90
2019-04-19T05:19:17.787Z,13.90
2019-04-19T05:21:44.711Z,13.90
2019-04-19T05:24:22.206Z,13.90
2019-04-19T05:26:51.944Z,13.90
2019-04-19T05:29:11.053Z,13.90
2019-04-19T05:31:38.060Z,13.90
2019-04-19T05:34:21.676Z,13.90
2019-04-19T05:36:53.566Z,14.00
2019-04-19T05:39:30.376Z,14.00
2019-04-19T05:41:56.451Z,14.00
2019-04-19T05:44:54.928Z,14.10
2019-04-19T05:47:04.772Z,14.10
2019-04-19T05:49:33.751Z,14.10
2019-04-19T05:52:08.122Z,14.10
2019-04-19T05:54:18.385Z,14.20
2019-04-19T05:56:53.295Z,14.10
2019-04-19T05:59:29.438Z,14.20
2019-04-19T06:01:59.107Z,14.20
2019-04-19T06:04:31.991Z,14.20
2019-04-19T06:07:08.383Z,14.20
2019-04-19T06:09:17.622Z,14.20
2019-04-19T06:11:46.734Z,14.20
2019-04-19T06:14:38.826Z,14.30
2019-04-19T06:17:22.779Z,14.30
2019-04-19T06:20:15.983Z,14.40
2019-04-19T06:22:49.947Z,14.40
2019-04-19T06:25:20.071Z,14.40
2019-04-19T06:28:02.799Z,14.50
2019-04-19T06:30:24.601Z,14.50
2019-04-19T06:32:49.492Z,14.60
2019-04-19T06:35:10.680Z,14.60
2019-04-19T06:37:31.130Z,14.70
2019-04-19T06:40:06.052Z,14.70
2019-04-19T06:42:35.952Z,14.70
2019-04-19T06:45:17.724Z,14.80
2019-04-19T06:47:36.630Z,14.80
2019-04-19T06:50:00.315Z,14.90
2019-04-19T06:52:31.708Z,15.00
2019-04-19T06:55:03.542Z,15.00
2019-04-19T06:58:00.412Z,15.10
2019-04-19T07:00:30.557Z,15.20
2019-04-19T07:02:50.071Z,15.30
2019-04-19T07:05:33.517Z,15.40
2019-04-19T07:08:18.258Z,15.40
2019-04-19T07:10:50.267Z,15.60
2019-04-19T07:13:09.011Z,15.70
2019-04-19T07:15:53.532Z,15.80
2019-04-19T07:18:05.138Z,15.90
2019-04-19T07:20:36.137Z,16.00
2019-04-19T07:23:03.241Z,16.10
2019-04-19T07:25:49.535Z,16.20
2019-04-19T07:28:18.235Z,16.30
2019-04-19T07:30:52.966Z,16.40
2019-04-19T07:33:28.790Z,16.50
2019-04-19T07:36:10.095Z,16.60
2019-04-19T07:38:41.211Z,16.80
2019-04-19T07:41:26.727Z,16.90
2019-04-19T07:44:25.895Z,17.00
2019-04-19T07:47:05.011Z,17.20
2019-04-19T07:49:18.893Z,17.40
2019-04-19T07:51:56.492Z,17.50
2019-04-19T07:54:21.553Z,17.60
2019-04-19T07:57:06.306Z,17.80
2019-04-19T07:59:39.551Z,17.90
2019-04-19T08:12:38.224Z,19.00
2019-04-19T08:15:06.784Z,19.10
2019-04-19T08:27:21.664Z,19.50
2019-04-19T08:29:49.071Z,19.50
2019-04-19T08:32:12.973Z,19.60
2019-04-19T08:34:43.149Z,19.50
2019-04-19T08:37:19.785Z,19.60
2019-04-19T08:39:56.770Z,19.60
2019-04-19T08:42:31.088Z,19.80
2019-04-19T08:44:51.639Z,19.80
2019-04-19T08:47:27.881Z,19.90
2019-04-19T08:49:59.549Z,19.90
2019-04-19T08:52:30.475Z,20.00
2019-04-19T08:55:13.977Z,20.20
2019-04-19T08:57:29.488Z,20.30
2019-04-19T09:00:49.953Z,20.40
2019-04-19T09:03:03.955Z,20.50
2019-04-19T09:05:37.607Z,20.60
2019-04-19T09:08:10.213Z,20.80
2019-04-19T09:10:39.188Z,21.10
2019-04-19T09:13:19.620Z,21.30
2019-04-19T09:15:35.572Z,21.40
2019-04-19T09:18:26.231Z,21.40
2019-04-19T09:20:38.721Z,21.30
2019-04-19T09:23:09.152Z,21.20
2019-04-19T09:25:52.672Z,21.30
2019-04-19T09:28:42.400Z,21.30
2019-04-19T09:31:01.078Z,21.30
2019-04-19T09:33:21.765Z,21.40
2019-04-19T09:35:53.201Z,21.50
2019-04-19T09:38:21.453Z,21.60
2019-04-19T09:40:50.400Z,21.70
2019-04-19T09:43:28.263Z,21.80
2019-04-19T09:45:44.844Z,21.90
2019-04-19T09:48:35.063Z,21.80
2019-04-19T09:50:59.885Z,21.90
2019-04-19T09:53:43.215Z,22.10
2019-04-19T09:56:08.714Z,22.10
2019-04-19T09:58:30.360Z,22.20
2019-04-19T10:00:45.361Z,22.20
2019-04-19T10:03:22.008Z,22.30
2019-04-19T10:05:44.618Z,22.40
2019-04-19T10:08:13.595Z,22.40
2019-04-19T10:10:45.062Z,22.60
2019-04-19T10:13:12.511Z,22.70
2019-04-19T10:16:18.817Z,22.50
2019-04-19T10:18:54.565Z,22.60
2019-04-19T10:21:26.639Z,22.60
2019-04-19T10:23:49.886Z,22.60
2019-04-19T10:26:24.256Z,22.80
2019-04-19T10:28:53.005Z,22.90
2019-04-19T10:31:27.249Z,22.90
2019-04-19T10:33:59.574Z,22.90
2019-04-19T10:36:26.661Z,22.80
2019-04-19T10:38:57.662Z,22.90
2019-04-19T10:41:25.728Z,23.00
2019-04-19T10:44:16.718Z,23.00
2019-04-19T10:46:44.762Z,23.00
2019-04-19T10:49:19.889Z,22.90
2019-04-19T10:52:02.631Z,22.90
2019-04-19T10:54:32.760Z,23.00
2019-04-19T10:57:12.561Z,23.20
2019-04-19T10:59:41.082Z,23.20
2019-04-19T11:02:10.523Z,23.20
2019-04-19T11:04:39.199Z,23.30
2019-04-19T11:07:07.982Z,23.20
2019-04-19T11:09:37.421Z,23.20
2019-04-19T11:12:07.991Z,23.30
2019-04-19T11:14:36.569Z,23.30
2019-04-19T11:17:07.452Z,23.30
2019-04-19T11:19:49.804Z,23.50
2019-04-19T11:22:07.707Z,23.50
2019-04-19T11:24:36.347Z,23.60
2019-04-19T11:27:05.192Z,23.60
2019-04-19T11:29:34.504Z,23.60
2019-04-19T11:32:06.085Z,23.70
2019-04-19T11:34:35.558Z,23.90
2019-04-19T11:37:05.306Z,24.00
2019-04-19T11:39:35.010Z,24.10
2019-04-19T11:42:03.791Z,24.30
2019-04-19T11:44:32.814Z,24.30
2019-04-19T11:47:03.520Z,24.40
2019-04-19T11:49:37.028Z,24.40
2019-04-19T11:52:03.456Z,24.40
2019-04-19T11:54:32.517Z,24.50
2019-04-19T11:57:14.844Z,24.30
2019-04-19T11:59:49.432Z,24.40
2019-04-19T12:02:24.471Z,24.50
2019-04-19T12:04:54.422Z,24.70
2019-04-19T12:07:24.239Z,24.80
2019-04-19T12:09:54.388Z,24.90
2019-04-19T12:12:25.662Z,25.10
2019-04-19T12:14:59.867Z,25.10
2019-04-19T12:17:29.204Z,25.20
2019-04-19T12:20:02.144Z,25.30
2019-04-19T12:22:27.878Z,25.30
2019-04-19T12:24:57.312Z,25.50
2019-04-19T12:27:25.862Z,25.80
2019-04-19T12:29:56.551Z,25.90
2019-04-19T12:32:26.119Z,26.00
2019-04-19T12:34:54.980Z,26.10
2019-04-19T12:37:24.646Z,26.10
2019-04-19T12:39:54.748Z,26.10
2019-04-19T12:42:26.040Z,26.20
2019-04-19T12:44:54.635Z,26.30
2019-04-19T12:47:23.059Z,26.60
2019-04-19T12:49:59.523Z,26.70
2019-04-19T12:52:22.054Z,26.90
2019-04-19T12:54:50.638Z,27.10
2019-04-19T12:57:20.739Z,27.10
2019-04-19T12:59:49.591Z,27.20
2019-04-19T13:02:19.877Z,27.60
2019-04-19T13:04:52.567Z,27.70
2019-04-19T13:07:21.042Z,27.90
2019-04-19T13:09:50.844Z,28.20
2019-04-19T13:12:19.465Z,28.50
2019-04-19T13:14:49.273Z,28.60
2019-04-19T13:17:38.189Z,28.90
2019-04-19T13:20:13.540Z,29.20
2019-04-19T13:22:38.715Z,29.40
2019-04-19T13:25:09.061Z,29.50
2019-04-19T13:27:45.675Z,29.60
2019-04-19T13:30:20.425Z,29.80
2019-04-19T13:32:39.822Z,30.00
2019-04-19T13:35:09.594Z,30.20
2019-04-19T13:37:43.078Z,30.30
2019-04-19T13:40:30.257Z,30.60
2019-04-19T13:43:01.484Z,31.00
2019-04-19T13:45:32.758Z,31.20
2019-04-19T13:48:00.739Z,31.40
2019-04-19T13:50:36.042Z,31.30
2019-04-19T13:53:00.374Z,31.60
2019-04-19T13:55:29.067Z,31.80
2019-04-19T13:57:57.757Z,32.40
2019-04-19T14:00:42.439Z,32.70
2019-04-19T14:03:12.009Z,32.40
2019-04-19T14:05:41.688Z,32.10
2019-04-19T14:08:11.167Z,32.60
2019-04-19T14:10:41.215Z,32.60
2019-04-19T14:13:10.573Z,32.70
2019-04-19T14:15:40.810Z,32.80
2019-04-19T14:18:10.568Z,32.20
2019-04-19T14:20:45.175Z,31.50
2019-04-19T14:23:09.871Z,30.50
2019-04-19T14:25:39.143Z,29.50
2019-04-19T14:28:09.331Z,28.70
2019-04-19T14:30:39.598Z,28.30
2019-04-19T14:33:08.440Z,27.80
2019-04-19T14:35:37.664Z,27.40
2019-04-19T14:38:07.567Z,27.20
2019-04-19T14:40:37.519Z,26.90
2019-04-19T14:43:06.748Z,26.70
2019-04-19T14:45:36.131Z,26.40
2019-04-19T14:48:16.412Z,26.40
2019-04-19T14:50:52.223Z,26.30
2019-04-19T14:53:12.315Z,26.20
2019-04-19T14:55:41.384Z,26.10
2019-04-19T14:58:10.128Z,26.10
2019-04-19T15:00:41.023Z,25.90
2019-04-19T15:03:12.656Z,25.90
2019-04-19T15:05:46.301Z,25.90
2019-04-19T15:08:14.968Z,25.90
2019-04-19T15:10:43.491Z,25.80
2019-04-19T15:13:12.573Z,25.80
2019-04-19T15:15:41.635Z,25.80
2019-04-19T15:18:10.966Z,25.80
2019-04-19T15:20:41.337Z,25.80
2019-04-19T15:23:10.837Z,25.80
2019-04-19T15:25:40.373Z,25.60
2019-04-19T15:28:13.123Z,25.50
2019-04-19T15:30:44.735Z,25.50
2019-04-19T15:33:12.232Z,25.40
2019-04-19T15:35:41.588Z,25.50
2019-04-19T15:38:10.376Z,25.40
2019-04-19T15:40:40.295Z,25.40
2019-04-19T15:43:08.990Z,25.40
2019-04-19T15:45:38.884Z,25.40
2019-04-19T15:48:26.199Z,25.40
2019-04-19T15:50:43.947Z,25.40
2019-04-19T15:53:13.808Z,25.30
2019-04-19T15:55:44.175Z,25.30
2019-04-19T15:58:20.247Z,25.30
2019-04-19T16:00:51.163Z,25.30
2019-04-19T16:03:59.517Z,25.20
2019-04-19T16:06:38.890Z,25.20
2019-04-19T16:09:10.863Z,25.10
2019-04-19T16:11:50.354Z,25.10
2019-04-19T16:14:19.871Z,25.10
2019-04-19T16:16:49.305Z,25.10
2019-04-19T16:19:18.522Z,25.00
2019-04-19T16:21:53.281Z,25.00
2019-04-19T16:24:18.749Z,25.00
2019-04-19T16:26:48.980Z,25.00
2019-04-19T16:29:27.868Z,25.00
2019-04-19T16:32:07.203Z,24.90
2019-04-19T16:34:36.214Z,24.90
2019-04-19T16:37:06.240Z,24.80
2019-04-19T16:39:35.524Z,24.80
2019-04-19T16:42:05.019Z,24.80
2019-04-19T16:44:34.066Z,24.80
2019-04-19T16:47:03.425Z,24.70
2019-04-19T16:49:32.605Z,24.70
2019-04-19T16:52:01.152Z,24.60
2019-04-19T16:54:38.436Z,24.60
2019-04-19T16:57:16.003Z,24.60
2019-04-19T16:59:37.779Z,24.50
2019-04-19T17:02:07.020Z,24.40
2019-04-19T17:04:36.695Z,24.40
2019-04-19T17:07:08.728Z,24.40
2019-04-19T17:09:38.467Z,24.40
2019-04-19T17:12:07.740Z,24.30
2019-04-19T17:14:36.854Z,24.30
2019-04-19T17:20:00.536Z,24.10
2019-04-19T17:22:39.212Z,24.10
2019-04-19T17:25:11.045Z,24.00
2019-04-19T17:27:41.065Z,24.00
2019-04-19T17:30:12.840Z,23.90
2019-04-19T17:32:42.072Z,23.90
2019-04-19T17:35:12.293Z,23.80
2019-04-19T17:37:42.201Z,23.80
2019-04-19T17:40:11.375Z,23.80
2019-04-19T17:42:40.418Z,23.70
2019-04-19T17:45:09.474Z,23.70
2019-04-19T17:47:40.906Z,23.60
2019-04-19T17:50:10.943Z,23.50
2019-04-19T17:52:39.529Z,23.40
2019-04-19T17:55:25.139Z,23.40
2019-04-19T17:57:47.350Z,23.30
2019-04-19T18:00:16.529Z,23.20
2019-04-19T18:02:46.727Z,23.20
2019-04-19T18:05:16.041Z,23.10
2019-04-19T18:07:47.652Z,23.00
2019-04-19T18:10:19.717Z,23.00
2019-04-19T18:12:47.471Z,23.00
2019-04-19T18:15:17.282Z,22.90
2019-04-19T18:17:48.480Z,22.80
2019-04-19T18:20:19.924Z,22.80
2019-04-19T18:22:56.801Z,22.80
2019-04-19T18:25:17.997Z,22.70
2019-04-19T18:28:01.328Z,22.70
2019-04-19T18:30:29.496Z,22.60
2019-04-19T18:33:02.011Z,22.40
2019-04-19T18:35:33.700Z,22.30
2019-04-19T18:38:01.027Z,22.20
2019-04-19T18:40:29.650Z,22.20
2019-04-19T18:43:12.469Z,22.10
2019-04-19T18:45:30.680Z,22.10
2019-04-19T18:47:58.979Z,22.00
2019-04-19T18:50:28.482Z,22.00
2019-04-19T18:53:07.497Z,22.00
2019-04-19T18:55:34.302Z,21.90
2019-04-19T18:57:58.318Z,21.80
2019-04-19T19:00:36.884Z,21.60
2019-04-19T19:03:01.817Z,21.50
2019-04-19T19:05:28.057Z,21.40
2019-04-19T19:08:01.991Z,21.20
2019-04-19T19:10:35.505Z,21.10
2019-04-19T19:12:58.229Z,21.00
2019-04-19T19:15:36.094Z,20.90
2019-04-19T19:18:02.420Z,20.80
2019-04-19T19:20:42.393Z,20.70
2019-04-19T19:23:19.148Z,20.60
2019-04-19T19:25:49.214Z,20.50
2019-04-19T19:28:10.538Z,20.40
2019-04-19T19:30:39.055Z,20.30
2019-04-19T19:33:11.866Z,20.20
2019-04-19T19:35:45.808Z,20.20
2019-04-19T19:38:15.547Z,20.10
2019-04-19T19:40:54.794Z,20.00
2019-04-19T19:43:30.290Z,20.00
2019-04-19T19:45:51.608Z,19.90
2019-04-19T19:48:29.854Z,19.80
2019-04-19T19:51:04.810Z,19.70
2019-04-19T19:56:11.268Z,19.60
2019-04-19T19:58:25.575Z,19.60
2019-04-19T20:01:04.046Z,19.50
2019-04-19T20:03:23.685Z,19.50
2019-04-19T20:05:46.035Z,19.40
2019-04-19T20:08:21.289Z,19.40
2019-04-19T20:10:47.882Z,19.30
2019-04-19T20:13:17.937Z,19.30
2019-04-19T20:15:47.482Z,19.30
2019-04-19T20:18:16.023Z,19.20
2019-04-19T20:20:44.600Z,19.10
2019-04-19T20:23:21.559Z,19.10
2019-04-19T20:25:50.523Z,19.10
2019-04-19T20:28:22.744Z,19.00
2019-04-19T20:31:05.384Z,18.90
2019-04-19T20:33:40.364Z,18.80
2019-04-19T20:36:07.009Z,18.80
2019-04-19T20:38:40.471Z,18.70
2019-04-19T20:41:28.533Z,18.70
2019-04-19T20:44:07.892Z,18.60
2019-04-19T20:46:28.649Z,18.50
2019-04-19T20:49:01.171Z,18.50
2019-04-19T20:51:41.513Z,18.40
2019-04-19T20:54:21.781Z,18.40
2019-04-19T20:56:57.947Z,18.40
2019-04-19T20:59:05.036Z,18.30
2019-04-19T21:01:34.853Z,18.20
2019-04-19T21:04:09.152Z,18.20
2019-04-19T21:06:37.791Z,18.30
2019-04-19T21:09:05.431Z,18.40
2019-04-19T21:11:38.944Z,18.40
2019-04-19T21:14:05.447Z,18.40
2019-04-19T21:17:00.179Z,18.40
2019-04-19T21:19:24.426Z,18.40
2019-04-19T21:21:55.640Z,18.40
2019-04-19T21:24:24.528Z,18.30
2019-04-19T21:26:55.754Z,18.30
2019-04-19T21:29:28.368Z,18.20
2019-04-19T21:31:57.332Z,18.20
2019-04-19T21:34:32.238Z,18.20
2019-04-19T21:37:03.226Z,18.20
2019-04-19T21:39:39.104Z,18.20
2019-04-19T21:42:05.078Z,18.10
2019-04-19T21:44:30.920Z,18.20
2019-04-19T21:47:03.415Z,18.10
2019-04-19T21:49:30.805Z,18.10
2019-04-19T21:52:05.391Z,18.10
2019-04-19T21:54:30.596Z,18.10
2019-04-19T21:57:00.400Z,18.10
2019-04-19T21:59:34.607Z,18.00
2019-04-19T22:01:59.619Z,18.00
2019-04-19T22:04:29.659Z,18.00
2019-04-19T22:07:02.781Z,18.10
2019-04-19T22:09:28.865Z,18.00
2019-04-19T22:11:58.489Z,18.00
2019-04-19T22:14:31.355Z,18.00
2019-04-19T22:16:58.817Z,17.90
2019-04-19T22:19:30.258Z,17.90
2019-04-19T22:22:23.341Z,17.80
2019-04-19T22:24:53.294Z,17.80
2019-04-19T22:27:21.805Z,17.80
2019-04-19T22:29:51.475Z,17.80
2019-04-19T22:32:22.096Z,17.70
2019-04-19T22:34:50.532Z,17.60
2019-04-19T22:37:26.170Z,17.50
2019-04-19T22:39:52.753Z,17.50
2019-04-19T22:42:20.383Z,17.60
2019-04-19T22:44:48.847Z,17.50
2019-04-19T22:47:22.850Z,17.50
2019-04-19T22:49:47.475Z,17.40
2019-04-19T22:52:16.479Z,17.40
2019-04-19T22:54:45.000Z,17.40
2019-04-19T22:57:17.745Z,17.30
2019-04-19T22:59:50.463Z,17.30
2019-04-19T23:02:22.715Z,17.30
2019-04-19T23:04:56.055Z,17.30
2019-04-19T23:07:48.355Z,17.30
2019-04-19T23:10:12.678Z,17.20
2019-04-19T23:12:42.247Z,17.20
2019-04-19T23:15:18.621Z,17.20
2019-04-19T23:17:43.010Z,17.10
2019-04-19T23:20:13.695Z,17.10
2019-04-19T23:22:43.140Z,17.10
2019-04-19T23:25:13.410Z,17.00
2019-04-19T23:27:48.437Z,17.00
2019-04-19T23:30:18.826Z,16.90
2019-04-19T23:32:44.396Z,16.80
2019-04-19T23:35:14.187Z,16.80
2019-04-19T23:37:43.776Z,16.80
2019-04-19T23:40:15.159Z,16.70
2019-04-19T23:42:46.810Z,16.60
2019-04-19T23:45:14.666Z,16.60
2019-04-19T23:47:46.842Z,16.50
2019-04-19T23:50:39.082Z,16.50
2019-04-19T23:53:06.155Z,16.50
2019-04-19T23:55:36.086Z,16.50
2019-04-19T23:58:06.004Z,16.40
